KJAU

Campbell County Airport

Jacksboro, Tennessee, USA
METAR KJAU 161415Z AUTO 00000KT 8SM CLR M03/M04 A3030 RMK A01
Observed Flight Rules
Dec-16 @ 14:15 UTC (25 minutes ago) Visual Flight Rules
Wind Visibility Clouds
Calm 8 miles
  • Clear skies
Temperatures Readings
Current -3°C / 27°F
Dewpoint -4°C / 25°F
Humidity 93%
Altimeter 30.3" Hg
Pressure 1026 hPa
Elevation 360
METAR KJAU 161415Z AUTO 00000KT 8SM CLR M03/M04 A3030 RMK A01
Observed Flight Rules
Dec-16 @ 14:15 UTC
(25 minutes ago)
VFR
Wind Visibility
Calm 8 miles
Clouds
  • Clear skies
Temperature Dewpoint
-3°C / 27°F -4°C / 25°F
Humidity Altimeter Pressure
93% 30.3" Hg 1026 hPa